Salacia — WDF4062 — position and weather

sailwx.info

Track history (hours):
 
Tides and Currents Weather Stations Pressure Air Temp Water Temp Dewpoint Dewpoint Depression Visibility Wind Speed Wind Dir Waves Ship Positions

Salacia

Owner: Boston Harbor Cruises, Boston, MA. More information available from US FCC via Universal Licensing System and Coast Guard Vessel Documentation Center.

Last reported at 2018-Feb-24 01:53 UTC. Time now 2018-Feb-25 11:57 UTC.
Position N 42°16' W 070°55'.

Length 44 m.

Type: High speed craft. MMSI: 367447520.

Date/timePositionNaut miles runAvg speedWind from/ knotsBaromVisibWave heightAir tempDewpointWater temp
2018-Feb-24 01:53N 42°16' W 070°55'821.3
2018-Feb-24 01:30N 42°21' W 071°03'3 6.9
2018-Feb-24 01:00N 42°19' W 070°59'5 8.9
2018-Feb-24 00:29N 42°16' W 070°55'816.7
2018-Feb-24 00:00N 42°21' W 071°03'3 5.4
2018-Feb-23 23:30N 42°20' W 070°60'6 9.8
2018-Feb-23 22:55N 42°15' W 070°55'716.2
2018-Feb-23 22:31N 42°20' W 071°01'2 3.5
2018-Feb-23 22:00N 42°21' W 071°03'2 3.1
2018-Feb-23 21:30N 42°23' W 071°03'0 0.0
2018-Feb-23 21:00N 42°23' W 071°03'0 0.0
2018-Feb-23 20:30N 42°23' W 071°03'0 0.0
2018-Feb-23 20:00N 42°23' W 071°03'0 0.0
2018-Feb-23 19:30N 42°23' W 071°03'0 0.0
2018-Feb-23 19:00N 42°23' W 071°03'1 2.6
2018-Feb-23 18:30N 42°22' W 071°03'0 0.0
2018-Feb-23 18:00N 42°22' W 071°03'0 0.0
2018-Feb-23 17:30N 42°22' W 071°03'0 0.0
2018-Feb-23 17:00N 42°22' W 071°03'0 0.0
2018-Feb-23 16:30N 42°22' W 071°03'0 0.0
2018-Feb-23 16:00N 42°22' W 071°03'1 1.1
2018-Feb-23 15:30N 42°22' W 071°02'0 0.0
2018-Feb-23 15:01N 42°22' W 071°02'5 9.1
2018-Feb-23 14:31N 42°20' W 070°57'4 7.3
2018-Feb-23 13:57N 42°16' W 070°55'818.6
2018-Feb-23 13:31N 42°21' W 071°03'611.8
2018-Feb-23 13:01N 42°19' W 070°56'3 5.4
2018-Feb-23 12:23N 42°15' W 070°55'615.3
2018-Feb-23 12:00N 42°20' W 070°60'3 5.4
2018-Feb-23 11:30N 42°21' W 071°03'7 0.8
2018-Feb-23 01:50N 42°16' W 070°56'823.1
2018-Feb-23 01:30N 42°21' W 071°03'5 9.3
2018-Feb-23 01:00N 42°18' W 070°58'3 6.3
2018-Feb-23 00:29N 42°16' W 070°55'816.3
2018-Feb-23 00:00N 42°21' W 071°03'3 6.8
2018-Feb-22 23:30N 42°19' W 070°59'4 5.6
2018-Feb-22 22:46N 42°16' W 070°56'623.8
2018-Feb-22 22:30N 42°21' W 071°01'1 2.9
2018-Feb-22 22:00N 42°21' W 071°03'1 3.0
2018-Feb-22 21:30N 42°23' W 071°03'0 0.0
2018-Feb-22 21:00N 42°23' W 071°03'0 0.0
2018-Feb-22 20:30N 42°23' W 071°03'0 0.0
2018-Feb-22 20:00N 42°23' W 071°03'0 0.0
2018-Feb-22 19:31N 42°23' W 071°03'0 0.0
2018-Feb-22 19:01N 42°23' W 071°03'0 0.0
2018-Feb-22 18:30N 42°23' W 071°03'0 0.0
2018-Feb-22 18:00N 42°23' W 071°03'0 0.0
2018-Feb-22 17:30N 42°23' W 071°03'0 0.0
2018-Feb-22 17:00N 42°23' W 071°03'0 0.0
2018-Feb-22 16:31N 42°23' W 071°03'0 0.0
2018-Feb-22 16:00N 42°23' W 071°03'0 0.0
2018-Feb-22 15:30N 42°23' W 071°03'0 0.0
2018-Feb-22 14:57N 42°23' W 071°03'0 0.0
2018-Feb-22 14:30N 42°23' W 071°03'0 0.0
2018-Feb-22 14:00N 42°23' W 071°03'2 2.6
2018-Feb-22 13:25N 42°21' W 071°03'511.8
2018-Feb-22 13:00N 42°18' W 070°58'4 6.0
2018-Feb-22 12:26N 42°15' W 070°55'614.6
2018-Feb-22 12:00N 42°20' W 071°00'2 4.4
2018-Feb-22 11:30N 42°21' W 071°03'815.2
2018-Feb-22 10:58N 42°15' W 070°55'0 0.0
2018-Feb-22 01:53N 42°16' W 070°55'821.6
2018-Feb-22 01:30N 42°21' W 071°03'4 8.3
2018-Feb-22 01:00N 42°19' W 070°59'4 7.4
2018-Feb-22 00:29N 42°16' W 070°55'810.4
2018-Feb-21 23:43N 42°21' W 071°03'314.8
2018-Feb-21 23:31N 42°19' W 070°60'510.0
2018-Feb-21 22:58N 42°15' W 070°55'714.3
2018-Feb-21 22:30N 42°21' W 071°01'2 3.3
2018-Feb-21 22:00N 42°21' W 071°03'0 0.1
2018-Feb-21 17:51N 42°22' W 071°03'1 1.2
2018-Feb-21 17:24N 42°22' W 071°02'0 0.0
2018-Feb-21 17:00N 42°22' W 071°02'8 5.2
2018-Feb-21 15:30N 42°16' W 070°55'811.4
2018-Feb-21 14:49N 42°21' W 071°03'619.9
2018-Feb-21 14:30N 42°18' W 070°56'3 5.8
2018-Feb-21 14:00N 42°16' W 070°55'812.9
2018-Feb-21 13:22N 42°21' W 071°03'615.5
2018-Feb-21 12:58N 42°17' W 070°57'2 3.3
2018-Feb-21 12:21N 42°15' W 070°55'617.4
2018-Feb-21 12:00N 42°20' W 071°00'2 4.5
2018-Feb-21 11:30N 42°21' W 071°03'3 0.3
2018-Feb-21 01:39N 42°20' W 070°60'3 5.0
2018-Feb-21 01:08N 42°21' W 071°03'820.8
2018-Feb-21 00:44N 42°15' W 070°55'0 1.5
2018-Feb-21 00:29N 42°16' W 070°55'816.9
2018-Feb-21 00:00N 42°21' W 071°03'8 7.0
2018-Feb-20 22:51N 42°16' W 070°55'618.2
2018-Feb-20 22:30N 42°20' W 071°01'2 4.2
2018-Feb-20 22:00N 42°22' W 071°03'1 1.8
2018-Feb-20 21:31N 42°23' W 071°03'0 0.0
2018-Feb-20 21:01N 42°23' W 071°03'0 0.0
2018-Feb-20 20:31N 42°23' W 071°03'0 0.0
2018-Feb-20 20:01N 42°23' W 071°03'0 0.0
2018-Feb-20 19:31N 42°23' W 071°03'0 0.0
2018-Feb-20 19:01N 42°23' W 071°03'0 0.0
2018-Feb-20 18:31N 42°23' W 071°03'0 0.0
2018-Feb-20 18:01N 42°23' W 071°03'0 0.0
2018-Feb-20 17:31N 42°23' W 071°03'0 0.0
2018-Feb-20 17:01N 42°23' W 071°03'0 0.0
2018-Feb-20 16:31N 42°23' W 071°03'0 0.0
2018-Feb-20 16:01N 42°23' W 071°03'0 0.4
2018-Feb-20 15:30N 42°23' W 071°03'1 2.3
2018-Feb-20 15:00N 42°22' W 071°03'510.7
2018-Feb-20 14:30N 42°18' W 070°58'3 5.8
2018-Feb-20 14:00N 42°16' W 070°55'816.2
2018-Feb-20 13:30N 42°21' W 071°03'510.2
2018-Feb-20 13:00N 42°18' W 070°58'3 4.8
2018-Feb-20 12:24N 42°16' W 070°55'819.5
2018-Feb-20 12:00N 42°21' W 071°02'0 0.3
2018-Feb-20 11:30N 42°21' W 071°02'811.6
2018-Feb-20 10:49N 42°15' W 070°55'0 0.0
2018-Feb-20 02:02N 42°15' W 070°55'1 5.9
2018-Feb-20 01:56N 42°16' W 070°55'818.8
2018-Feb-20 01:31N 42°21' W 071°03'4 7.0
2018-Feb-20 00:59N 42°19' W 070°59'4 8.2
2018-Feb-20 00:28N 42°16' W 070°55'811.0
2018-Feb-19 23:45N 42°21' W 071°03'313.1
2018-Feb-19 23:30N 42°19' W 070°59'5 9.7
2018-Feb-19 22:59N 42°15' W 070°55'815.8
2018-Feb-19 22:30N 42°21' W 071°02'1 1.6
2018-Feb-19 22:00N 42°21' W 071°03'0 0.1
2018-Feb-19 17:42N 42°22' W 071°03'1 2.7
2018-Feb-19 17:30N 42°22' W 071°02'0 0.0
2018-Feb-19 16:49N 42°22' W 071°02'0 0.9
2018-Feb-19 16:30N 42°21' W 071°02'8 7.9
2018-Feb-19 15:31N 42°16' W 070°55'0 6.9
2018-Feb-19 15:29N 42°16' W 070°55'816.5
2018-Feb-19 15:00N 42°21' W 071°03'612.1
2018-Feb-19 14:30N 42°19' W 070°56'3 5.9
2018-Feb-19 14:00N 42°16' W 070°55'816.3
2018-Feb-19 13:30N 42°21' W 071°03'812.5
2018-Feb-19 12:52N 42°16' W 070°55'0 0.9
2018-Feb-19 12:25N 42°15' W 070°55'716.6
2018-Feb-19 12:00N 42°21' W 071°01'  
2018-Feb-17 01:46N 42°17' W 070°56'725.9
2018-Feb-17 01:30N 42°21' W 071°03'3 6.4
2018-Feb-17 01:00N 42°19' W 070°60'510.1
2018-Feb-17 00:30N 42°15' W 070°55'811.3
2018-Feb-16 23:46N 42°21' W 071°03'412.6
2018-Feb-16 23:29N 42°19' W 070°59'5 9.6
2018-Feb-16 22:59N 42°15' W 070°55'612.6
2018-Feb-16 22:31N 42°20' W 071°00'2 5.0
2018-Feb-16 22:00N 42°21' W 071°03'0 0.0
2018-Feb-16 21:28N 42°21' W 071°03'0 0.0
2018-Feb-16 20:56N 42°21' W 071°03'0 0.0
2018-Feb-16 20:28N 42°21' W 071°03'0 0.3
2018-Feb-16 20:00N 42°21' W 071°03'810.0
2018-Feb-16 19:10N 42°15' W 070°55'1 3.3
2018-Feb-16 18:59N 42°16' W 070°55'816.4
2018-Feb-16 18:30N 42°21' W 071°03'0 0.1
2018-Feb-16 16:18N 42°22' W 071°03'0 0.0
2018-Feb-16 15:58N 42°22' W 071°03'0 0.0
2018-Feb-16 15:30N 42°22' W 071°03'0 0.2
2018-Feb-16 15:00N 42°22' W 071°03'0 0.3
2018-Feb-16 14:30N 42°22' W 071°03'510.3
2018-Feb-16 14:00N 42°18' W 070°58'3 6.3
2018-Feb-16 13:30N 42°16' W 070°55'811.7
2018-Feb-16 12:49N 42°21' W 071°03'815.7
2018-Feb-16 12:17N 42°15' W 070°55'0 0.6
2018-Feb-16 11:46N 42°16' W 070°55'0 0.0
2018-Feb-16 02:07N 42°15' W 070°55'1 4.2
2018-Feb-16 01:59N 42°16' W 070°55'812.1
2018-Feb-16 01:20N 42°21' W 071°03'719.9
2018-Feb-16 01:00N 42°17' W 070°56'2 3.6
2018-Feb-16 00:30N 42°15' W 070°55'816.6
2018-Feb-16 00:00N 42°21' W 071°03'810.5
2018-Feb-15 23:13N 42°15' W 070°55'0 0.2
2018-Feb-15 23:00N 42°15' W 070°55'612.8
2018-Feb-15 22:30N 42°20' W 071°00'3 5.0
2018-Feb-15 21:58N 42°22' W 071°03'0 0.5
2018-Feb-15 21:30N 42°22' W 071°03'1 0.2
2018-Feb-15 16:07N 42°22' W 071°03'0 3.5
2018-Feb-15 16:00N 42°22' W 071°02'0 0.0
2018-Feb-15 15:30N 42°22' W 071°02'0 0.9
2018-Feb-15 15:00N 42°22' W 071°03'610.9
2018-Feb-15 14:28N 42°17' W 070°57'3 5.5
2018-Feb-15 14:00N 42°16' W 070°55'811.7
2018-Feb-15 13:19N 42°21' W 071°03'517.5
2018-Feb-15 13:00N 42°17' W 070°58'3 5.3
2018-Feb-15 12:28N 42°15' W 070°55'816.5
2018-Feb-15 12:00N 42°21' W 071°02'1 1.5
2018-Feb-15 11:30N 42°21' W 071°03'8 0.8
2018-Feb-15 01:49N 42°16' W 070°55'824.6
2018-Feb-15 01:30N 42°21' W 071°03'5 8.8
2018-Feb-15 00:58N 42°18' W 070°58'3 7.5
2018-Feb-15 00:30N 42°16' W 070°55'815.6
2018-Feb-14 23:59N 42°21' W 071°03'3 6.9
2018-Feb-14 23:30N 42°19' W 070°59'5 8.1
2018-Feb-14 22:53N 42°15' W 070°55'717.4
2018-Feb-14 22:30N 42°21' W 071°01'2 3.3
2018-Feb-14 22:01N 42°21' W 071°03'0 0.6
2018-Feb-14 21:30N 42°22' W 071°03'0 0.0
2018-Feb-14 21:00N 42°22' W 071°03'0 0.0
2018-Feb-14 20:30N 42°22' W 071°03'0 0.0
2018-Feb-14 20:00N 42°22' W 071°03'0 0.0
2018-Feb-14 19:30N 42°22' W 071°03'0 0.0
2018-Feb-14 19:00N 42°22' W 071°03'0 0.0
2018-Feb-14 18:30N 42°22' W 071°03'0 0.0
2018-Feb-14 18:00N 42°22' W 071°03'0 0.0
2018-Feb-14 17:30N 42°22' W 071°03'0 0.0
2018-Feb-14 16:59N 42°22' W 071°03'0 0.0
2018-Feb-14 16:28N 42°22' W 071°03'0 0.0
2018-Feb-14 15:57N 42°22' W 071°03'0 0.0
2018-Feb-14 15:30N 42°22' W 071°03'0 0.0
2018-Feb-14 14:59N 42°22' W 071°03'0 0.0
2018-Feb-14 14:30N 42°22' W 071°03'0 0.0
2018-Feb-14 14:00N 42°22' W 071°03'0 0.7
2018-Feb-14 13:30N 42°21' W 071°03'712.7
2018-Feb-14 12:57N 42°17' W 070°56'1 2.9
2018-Feb-14 12:29N 42°15' W 070°55'714.4
2018-Feb-14 12:00N 42°21' W 071°01'1 2.8
2018-Feb-14 11:30N 42°21' W 071°03'816.6
2018-Feb-14 11:00N 42°15' W 070°55'0 0.0
2018-Feb-14 01:55N 42°16' W 070°55'  
Track history (hours):
 
Tides and Currents Weather Stations Pressure Air Temp Water Temp Dewpoint Dewpoint Depression Visibility Wind Speed Wind Dir Waves Ship Positions

Salacia

Owner: Boston Harbor Cruises, Boston, MA. More information available from US FCC via Universal Licensing System and Coast Guard Vessel Documentation Center.

Last reported at 2018-Feb-24 01:53 UTC. Time now 2018-Feb-25 11:57 UTC.
Position N 42°16' W 070°55'.

Length 44 m.

Type: High speed craft. MMSI: 367447520.

Date/timePositionNaut miles runAvg speedWind from/ knotsBaromVisibWave heightAir tempDewpointWater temp
2018-Feb-24 01:53N 42°16' W 070°55'821.3
2018-Feb-24 01:30N 42°21' W 071°03'3 6.9
2018-Feb-24 01:00N 42°19' W 070°59'5 8.9
2018-Feb-24 00:29N 42°16' W 070°55'816.7
2018-Feb-24 00:00N 42°21' W 071°03'3 5.4
2018-Feb-23 23:30N 42°20' W 070°60'6 9.8
2018-Feb-23 22:55N 42°15' W 070°55'716.2
2018-Feb-23 22:31N 42°20' W 071°01'2 3.5
2018-Feb-23 22:00N 42°21' W 071°03'2 3.1
2018-Feb-23 21:30N 42°23' W 071°03'0 0.0
2018-Feb-23 21:00N 42°23' W 071°03'0 0.0
2018-Feb-23 20:30N 42°23' W 071°03'0 0.0
2018-Feb-23 20:00N 42°23' W 071°03'0 0.0
2018-Feb-23 19:30N 42°23' W 071°03'0 0.0
2018-Feb-23 19:00N 42°23' W 071°03'1 2.6
2018-Feb-23 18:30N 42°22' W 071°03'0 0.0
2018-Feb-23 18:00N 42°22' W 071°03'0 0.0
2018-Feb-23 17:30N 42°22' W 071°03'0 0.0
2018-Feb-23 17:00N 42°22' W 071°03'0 0.0
2018-Feb-23 16:30N 42°22' W 071°03'0 0.0
2018-Feb-23 16:00N 42°22' W 071°03'1 1.1
2018-Feb-23 15:30N 42°22' W 071°02'0 0.0
2018-Feb-23 15:01N 42°22' W 071°02'5 9.1
2018-Feb-23 14:31N 42°20' W 070°57'4 7.3
2018-Feb-23 13:57N 42°16' W 070°55'818.6
2018-Feb-23 13:31N 42°21' W 071°03'611.8
2018-Feb-23 13:01N 42°19' W 070°56'3 5.4
2018-Feb-23 12:23N 42°15' W 070°55'615.3
2018-Feb-23 12:00N 42°20' W 070°60'3 5.4
2018-Feb-23 11:30N 42°21' W 071°03'7 0.8
2018-Feb-23 01:50N 42°16' W 070°56'823.1
2018-Feb-23 01:30N 42°21' W 071°03'5 9.3
2018-Feb-23 01:00N 42°18' W 070°58'3 6.3
2018-Feb-23 00:29N 42°16' W 070°55'816.3
2018-Feb-23 00:00N 42°21' W 071°03'3 6.8
2018-Feb-22 23:30N 42°19' W 070°59'4 5.6
2018-Feb-22 22:46N 42°16' W 070°56'623.8
2018-Feb-22 22:30N 42°21' W 071°01'1 2.9
2018-Feb-22 22:00N 42°21' W 071°03'1 3.0
2018-Feb-22 21:30N 42°23' W 071°03'0 0.0
2018-Feb-22 21:00N 42°23' W 071°03'0 0.0
2018-Feb-22 20:30N 42°23' W 071°03'0 0.0
2018-Feb-22 20:00N 42°23' W 071°03'0 0.0
2018-Feb-22 19:31N 42°23' W 071°03'0 0.0
2018-Feb-22 19:01N 42°23' W 071°03'0 0.0
2018-Feb-22 18:30N 42°23' W 071°03'0 0.0
2018-Feb-22 18:00N 42°23' W 071°03'0 0.0
2018-Feb-22 17:30N 42°23' W 071°03'0 0.0
2018-Feb-22 17:00N 42°23' W 071°03'0 0.0
2018-Feb-22 16:31N 42°23' W 071°03'0 0.0
2018-Feb-22 16:00N 42°23' W 071°03'0 0.0
2018-Feb-22 15:30N 42°23' W 071°03'0 0.0
2018-Feb-22 14:57N 42°23' W 071°03'0 0.0
2018-Feb-22 14:30N 42°23' W 071°03'0 0.0
2018-Feb-22 14:00N 42°23' W 071°03'2 2.6
2018-Feb-22 13:25N 42°21' W 071°03'511.8
2018-Feb-22 13:00N 42°18' W 070°58'4 6.0
2018-Feb-22 12:26N 42°15' W 070°55'614.6
2018-Feb-22 12:00N 42°20' W 071°00'2 4.4
2018-Feb-22 11:30N 42°21' W 071°03'815.2
2018-Feb-22 10:58N 42°15' W 070°55'0 0.0
2018-Feb-22 01:53N 42°16' W 070°55'821.6
2018-Feb-22 01:30N 42°21' W 071°03'4 8.3
2018-Feb-22 01:00N 42°19' W 070°59'4 7.4
2018-Feb-22 00:29N 42°16' W 070°55'810.4
2018-Feb-21 23:43N 42°21' W 071°03'314.8
2018-Feb-21 23:31N 42°19' W 070°60'510.0
2018-Feb-21 22:58N 42°15' W 070°55'714.3
2018-Feb-21 22:30N 42°21' W 071°01'2 3.3
2018-Feb-21 22:00N 42°21' W 071°03'0 0.1
2018-Feb-21 17:51N 42°22' W 071°03'1 1.2
2018-Feb-21 17:24N 42°22' W 071°02'0 0.0
2018-Feb-21 17:00N 42°22' W 071°02'8 5.2
2018-Feb-21 15:30N 42°16' W 070°55'811.4
2018-Feb-21 14:49N 42°21' W 071°03'619.9
2018-Feb-21 14:30N 42°18' W 070°56'3 5.8
2018-Feb-21 14:00N 42°16' W 070°55'812.9
2018-Feb-21 13:22N 42°21' W 071°03'615.5
2018-Feb-21 12:58N 42°17' W 070°57'2 3.3
2018-Feb-21 12:21N 42°15' W 070°55'617.4
2018-Feb-21 12:00N 42°20' W 071°00'2 4.5
2018-Feb-21 11:30N 42°21' W 071°03'3 0.3
2018-Feb-21 01:39N 42°20' W 070°60'3 5.0
2018-Feb-21 01:08N 42°21' W 071°03'820.8
2018-Feb-21 00:44N 42°15' W 070°55'0 1.5
2018-Feb-21 00:29N 42°16' W 070°55'816.9
2018-Feb-21 00:00N 42°21' W 071°03'8 7.0
2018-Feb-20 22:51N 42°16' W 070°55'618.2
2018-Feb-20 22:30N 42°20' W 071°01'2 4.2
2018-Feb-20 22:00N 42°22' W 071°03'1 1.8
2018-Feb-20 21:31N 42°23' W 071°03'0 0.0
2018-Feb-20 21:01N 42°23' W 071°03'0 0.0
2018-Feb-20 20:31N 42°23' W 071°03'0 0.0
2018-Feb-20 20:01N 42°23' W 071°03'0 0.0
2018-Feb-20 19:31N 42°23' W 071°03'0 0.0
2018-Feb-20 19:01N 42°23' W 071°03'0 0.0
2018-Feb-20 18:31N 42°23' W 071°03'0 0.0
2018-Feb-20 18:01N 42°23' W 071°03'0 0.0
2018-Feb-20 17:31N 42°23' W 071°03'0 0.0
2018-Feb-20 17:01N 42°23' W 071°03'0 0.0
2018-Feb-20 16:31N 42°23' W 071°03'0 0.0
2018-Feb-20 16:01N 42°23' W 071°03'0 0.4
2018-Feb-20 15:30N 42°23' W 071°03'1 2.3
2018-Feb-20 15:00N 42°22' W 071°03'510.7
2018-Feb-20 14:30N 42°18' W 070°58'3 5.8
2018-Feb-20 14:00N 42°16' W 070°55'816.2
2018-Feb-20 13:30N 42°21' W 071°03'510.2
2018-Feb-20 13:00N 42°18' W 070°58'3 4.8
2018-Feb-20 12:24N 42°16' W 070°55'819.5
2018-Feb-20 12:00N 42°21' W 071°02'0 0.3
2018-Feb-20 11:30N 42°21' W 071°02'811.6
2018-Feb-20 10:49N 42°15' W 070°55'0 0.0
2018-Feb-20 02:02N 42°15' W 070°55'1 5.9
2018-Feb-20 01:56N 42°16' W 070°55'818.8
2018-Feb-20 01:31N 42°21' W 071°03'4 7.0
2018-Feb-20 00:59N 42°19' W 070°59'4 8.2
2018-Feb-20 00:28N 42°16' W 070°55'811.0
2018-Feb-19 23:45N 42°21' W 071°03'313.1
2018-Feb-19 23:30N 42°19' W 070°59'5 9.7
2018-Feb-19 22:59N 42°15' W 070°55'815.8
2018-Feb-19 22:30N 42°21' W 071°02'1 1.6
2018-Feb-19 22:00N 42°21' W 071°03'0 0.1
2018-Feb-19 17:42N 42°22' W 071°03'1 2.7
2018-Feb-19 17:30N 42°22' W 071°02'0 0.0
2018-Feb-19 16:49N 42°22' W 071°02'0 0.9
2018-Feb-19 16:30N 42°21' W 071°02'8 7.9
2018-Feb-19 15:31N 42°16' W 070°55'0 6.9
2018-Feb-19 15:29N 42°16' W 070°55'816.5
2018-Feb-19 15:00N 42°21' W 071°03'612.1
2018-Feb-19 14:30N 42°19' W 070°56'3 5.9
2018-Feb-19 14:00N 42°16' W 070°55'816.3
2018-Feb-19 13:30N 42°21' W 071°03'812.5
2018-Feb-19 12:52N 42°16' W 070°55'0 0.9
2018-Feb-19 12:25N 42°15' W 070°55'716.6
2018-Feb-19 12:00N 42°21' W 071°01'  
2018-Feb-17 01:46N 42°17' W 070°56'725.9
2018-Feb-17 01:30N 42°21' W 071°03'3 6.4
2018-Feb-17 01:00N 42°19' W 070°60'510.1
2018-Feb-17 00:30N 42°15' W 070°55'811.3
2018-Feb-16 23:46N 42°21' W 071°03'412.6
2018-Feb-16 23:29N 42°19' W 070°59'5 9.6
2018-Feb-16 22:59N 42°15' W 070°55'612.6
2018-Feb-16 22:31N 42°20' W 071°00'2 5.0
2018-Feb-16 22:00N 42°21' W 071°03'0 0.0
2018-Feb-16 21:28N 42°21' W 071°03'0 0.0
2018-Feb-16 20:56N 42°21' W 071°03'0 0.0
2018-Feb-16 20:28N 42°21' W 071°03'0 0.3
2018-Feb-16 20:00N 42°21' W 071°03'810.0
2018-Feb-16 19:10N 42°15' W 070°55'1 3.3
2018-Feb-16 18:59N 42°16' W 070°55'816.4
2018-Feb-16 18:30N 42°21' W 071°03'0 0.1
2018-Feb-16 16:18N 42°22' W 071°03'0 0.0
2018-Feb-16 15:58N 42°22' W 071°03'0 0.0
2018-Feb-16 15:30N 42°22' W 071°03'0 0.2
2018-Feb-16 15:00N 42°22' W 071°03'0 0.3
2018-Feb-16 14:30N 42°22' W 071°03'510.3
2018-Feb-16 14:00N 42°18' W 070°58'3 6.3
2018-Feb-16 13:30N 42°16' W 070°55'811.7
2018-Feb-16 12:49N 42°21' W 071°03'815.7
2018-Feb-16 12:17N 42°15' W 070°55'0 0.6
2018-Feb-16 11:46N 42°16' W 070°55'0 0.0
2018-Feb-16 02:07N 42°15' W 070°55'1 4.2
2018-Feb-16 01:59N 42°16' W 070°55'812.1
2018-Feb-16 01:20N 42°21' W 071°03'719.9
2018-Feb-16 01:00N 42°17' W 070°56'2 3.6
2018-Feb-16 00:30N 42°15' W 070°55'816.6
2018-Feb-16 00:00N 42°21' W 071°03'810.5
2018-Feb-15 23:13N 42°15' W 070°55'0 0.2
2018-Feb-15 23:00N 42°15' W 070°55'612.8
2018-Feb-15 22:30N 42°20' W 071°00'3 5.0
2018-Feb-15 21:58N 42°22' W 071°03'0 0.5
2018-Feb-15 21:30N 42°22' W 071°03'1 0.2
2018-Feb-15 16:07N 42°22' W 071°03'0 3.5
2018-Feb-15 16:00N 42°22' W 071°02'0 0.0
2018-Feb-15 15:30N 42°22' W 071°02'0 0.9
2018-Feb-15 15:00N 42°22' W 071°03'610.9
2018-Feb-15 14:28N 42°17' W 070°57'3 5.5
2018-Feb-15 14:00N 42°16' W 070°55'811.7
2018-Feb-15 13:19N 42°21' W 071°03'517.5
2018-Feb-15 13:00N 42°17' W 070°58'3 5.3
2018-Feb-15 12:28N 42°15' W 070°55'816.5
2018-Feb-15 12:00N 42°21' W 071°02'1 1.5
2018-Feb-15 11:30N 42°21' W 071°03'8 0.8
2018-Feb-15 01:49N 42°16' W 070°55'824.6
2018-Feb-15 01:30N 42°21' W 071°03'5 8.8
2018-Feb-15 00:58N 42°18' W 070°58'3 7.5
2018-Feb-15 00:30N 42°16' W 070°55'815.6
2018-Feb-14 23:59N 42°21' W 071°03'3 6.9
2018-Feb-14 23:30N 42°19' W 070°59'5 8.1
2018-Feb-14 22:53N 42°15' W 070°55'717.4
2018-Feb-14 22:30N 42°21' W 071°01'2 3.3
2018-Feb-14 22:01N 42°21' W 071°03'0 0.6
2018-Feb-14 21:30N 42°22' W 071°03'0 0.0
2018-Feb-14 21:00N 42°22' W 071°03'0 0.0
2018-Feb-14 20:30N 42°22' W 071°03'0 0.0
2018-Feb-14 20:00N 42°22' W 071°03'0 0.0
2018-Feb-14 19:30N 42°22' W 071°03'0 0.0
2018-Feb-14 19:00N 42°22' W 071°03'0 0.0
2018-Feb-14 18:30N 42°22' W 071°03'0 0.0
2018-Feb-14 18:00N 42°22' W 071°03'0 0.0
2018-Feb-14 17:30N 42°22' W 071°03'0 0.0
2018-Feb-14 16:59N 42°22' W 071°03'0 0.0
2018-Feb-14 16:28N 42°22' W 071°03'0 0.0
2018-Feb-14 15:57N 42°22' W 071°03'0 0.0
2018-Feb-14 15:30N 42°22' W 071°03'0 0.0
2018-Feb-14 14:59N 42°22' W 071°03'0 0.0
2018-Feb-14 14:30N 42°22' W 071°03'0 0.0
2018-Feb-14 14:00N 42°22' W 071°03'0 0.7
2018-Feb-14 13:30N 42°21' W 071°03'712.7
2018-Feb-14 12:57N 42°17' W 070°56'1 2.9
2018-Feb-14 12:29N 42°15' W 070°55'714.4
2018-Feb-14 12:00N 42°21' W 071°01'1 2.8
2018-Feb-14 11:30N 42°21' W 071°03'816.6
2018-Feb-14 11:00N 42°15' W 070°55'0 0.0
2018-Feb-14 01:55N 42°16' W 070°55'  

Dump ship's entire track history